sensor_id;sensor_type;location;lat;lon;timestamp;temperature;humidity
71754;DHT22;59593;51.716;7.016;2023-09-12T00:00:19;20.00;99.90
71754;DHT22;59593;51.716;7.016;2023-09-12T00:02:45;20.00;99.90
71754;DHT22;59593;51.716;7.016;2023-09-12T04:06:07;19.10;99.90
71754;DHT22;59593;51.716;7.016;2023-09-12T04:08:32;19.10;99.90
71754;DHT22;59593;51.716;7.016;2023-09-12T04:10:58;19.10;99.90
71754;DHT22;59593;51.716;7.016;2023-09-12T04:13:26;19.10;99.90
71754;DHT22;59593;51.716;7.016;2023-09-12T04:15:51;19.00;99.90
71754;DHT22;59593;51.716;7.016;2023-09-12T04:18:18;18.90;99.90
71754;DHT22;59593;51.716;7.016;2023-09-12T04:20:44;18.90;99.90
71754;DHT22;59593;51.716;7.016;2023-09-12T04:23:10;18.80;99.90
71754;DHT22;59593;51.716;7.016;2023-09-12T04:25:36;18.60;99.90
71754;DHT22;59593;51.716;7.016;2023-09-12T04:28:09;18.60;99.90
71754;DHT22;59593;51.716;7.016;2023-09-12T04:30:38;18.60;99.90
71754;DHT22;59593;51.716;7.016;2023-09-12T04:33:05;18.50;99.90
71754;DHT22;59593;51.716;7.016;2023-09-12T04:35:33;18.60;99.90
71754;DHT22;59593;51.716;7.016;2023-09-12T04:37:59;18.60;99.90
71754;DHT22;59593;51.716;7.016;2023-09-12T04:40:29;18.60;99.90
71754;DHT22;59593;51.716;7.016;2023-09-12T04:43:02;18.60;99.90
71754;DHT22;59593;51.716;7.016;2023-09-12T04:45:38;18.50;99.90
71754;DHT22;59593;51.716;7.016;2023-09-12T04:48:04;18.60;99.90
71754;DHT22;59593;51.716;7.016;2023-09-12T04:50:33;18.50;99.90
71754;DHT22;59593;51.716;7.016;2023-09-12T04:53:19;18.50;99.90
71754;DHT22;59593;51.716;7.016;2023-09-12T04:55:52;18.50;99.90
71754;DHT22;59593;51.716;7.016;2023-09-12T04:58:21;18.50;99.90
71754;DHT22;59593;51.716;7.016;2023-09-12T05:00:46;18.60;99.90
71754;DHT22;59593;51.716;7.016;2023-09-12T05:03:15;18.60;99.90
71754;DHT22;59593;51.716;7.016;2023-09-12T05:05:42;18.50;99.90
71754;DHT22;59593;51.716;7.016;2023-09-12T05:08:13;18.40;99.90
71754;DHT22;59593;51.716;7.016;2023-09-12T05:10:46;18.40;99.90
71754;DHT22;59593;51.716;7.016;2023-09-12T05:13:15;18.50;99.90
71754;DHT22;59593;51.716;7.016;2023-09-12T05:15:44;18.60;99.90
71754;DHT22;59593;51.716;7.016;2023-09-12T05:18:12;18.60;99.90
71754;DHT22;59593;51.716;7.016;2023-09-12T05:20:40;18.70;99.90
71754;DHT22;59593;51.716;7.016;2023-09-12T05:23:06;18.60;99.90
71754;DHT22;59593;51.716;7.016;2023-09-12T05:25:41;18.60;99.90
71754;DHT22;59593;51.716;7.016;2023-09-12T05:28:11;18.50;99.90
71754;DHT22;59593;51.716;7.016;2023-09-12T05:30:43;18.50;99.90
71754;DHT22;59593;51.716;7.016;2023-09-12T05:33:12;18.50;99.90
71754;DHT22;59593;51.716;7.016;2023-09-12T05:35:37;18.50;99.90
71754;DHT22;59593;51.716;7.016;2023-09-12T05:38:03;18.60;99.90
71754;DHT22;59593;51.716;7.016;2023-09-12T05:40:29;18.80;99.90
71754;DHT22;59593;51.716;7.016;2023-09-12T05:43:00;19.20;99.90
71754;DHT22;59593;51.716;7.016;2023-09-12T05:45:32;19.30;99.90
71754;DHT22;59593;51.716;7.016;2023-09-12T05:48:23;19.00;99.90
71754;DHT22;59593;51.716;7.016;2023-09-12T05:51:10;18.70;99.90
71754;DHT22;59593;51.716;7.016;2023-09-12T05:53:37;18.70;99.90
71754;DHT22;59593;51.716;7.016;2023-09-12T05:59:24;18.90;99.90
71754;DHT22;59593;51.716;7.016;2023-09-12T06:01:56;19.00;99.90
71754;DHT22;59593;51.716;7.016;2023-09-12T06:04:24;19.20;99.90
71754;DHT22;59593;51.716;7.016;2023-09-12T06:06:50;19.30;99.90
71754;DHT22;59593;51.716;7.016;2023-09-12T06:09:31;19.40;99.90
71754;DHT22;59593;51.716;7.016;2023-09-12T06:12:13;19.40;99.90
71754;DHT22;59593;51.716;7.016;2023-09-12T06:14:53;19.00;99.90
71754;DHT22;59593;51.716;7.016;2023-09-12T06:17:21;18.80;99.90
71754;DHT22;59593;51.716;7.016;2023-09-12T06:19:59;18.90;99.90
71754;DHT22;59593;51.716;7.016;2023-09-12T06:22:47;18.70;99.90
71754;DHT22;59593;51.716;7.016;2023-09-12T06:27:58;18.90;99.90
71754;DHT22;59593;51.716;7.016;2023-09-12T06:30:31;19.10;99.90
71754;DHT22;59593;51.716;7.016;2023-09-12T06:32:57;19.10;99.90
71754;DHT22;59593;51.716;7.016;2023-09-12T06:35:22;19.10;99.90
71754;DHT22;59593;51.716;7.016;2023-09-12T06:37:48;19.20;99.90
71754;DHT22;59593;51.716;7.016;2023-09-12T06:40:14;19.20;99.90
71754;DHT22;59593;51.716;7.016;2023-09-12T06:42:41;19.40;99.90
71754;DHT22;59593;51.716;7.016;2023-09-12T06:45:13;19.50;99.90
71754;DHT22;59593;51.716;7.016;2023-09-12T06:47:44;19.60;99.90
71754;DHT22;59593;51.716;7.016;2023-09-12T06:50:32;19.50;99.90
71754;DHT22;59593;51.716;7.016;2023-09-12T06:53:29;19.40;99.90
71754;DHT22;59593;51.716;7.016;2023-09-12T06:56:24;19.40;99.90
71754;DHT22;59593;51.716;7.016;2023-09-12T07:14:12;18.90;99.90
71754;DHT22;59593;51.716;7.016;2023-09-12T07:38:43;18.70;99.90
71754;DHT22;59593;51.716;7.016;2023-09-12T07:41:53;18.90;99.90
71754;DHT22;59593;51.716;7.016;2023-09-12T07:44:28;19.00;99.90
71754;DHT22;59593;51.716;7.016;2023-09-12T07:50:54;19.00;99.90
71754;DHT22;59593;51.716;7.016;2023-09-12T07:56:21;18.90;99.90
71754;DHT22;59593;51.716;7.016;2023-09-12T07:58:57;18.90;99.90
71754;DHT22;59593;51.716;7.016;2023-09-12T08:02:01;18.90;99.90
71754;DHT22;59593;51.716;7.016;2023-09-12T08:04:35;19.00;99.90
71754;DHT22;59593;51.716;7.016;2023-09-12T08:07:11;19.00;99.90
71754;DHT22;59593;51.716;7.016;2023-09-12T08:45:27;19.40;99.90
71754;DHT22;59593;51.716;7.016;2023-09-12T08:48:06;19.60;99.90
71754;DHT22;59593;51.716;7.016;2023-09-12T08:50:56;19.40;99.90
71754;DHT22;59593;51.716;7.016;2023-09-12T08:53:37;19.50;99.90
71754;DHT22;59593;51.716;7.016;2023-09-12T08:56:07;19.60;99.90
71754;DHT22;59593;51.716;7.016;2023-09-12T08:58:54;19.60;99.90
71754;DHT22;59593;51.716;7.016;2023-09-12T09:01:27;19.70;99.90
71754;DHT22;59593;51.716;7.016;2023-09-12T09:04:14;19.70;99.90
71754;DHT22;59593;51.716;7.016;2023-09-12T09:06:43;19.80;99.90
71754;DHT22;59593;51.716;7.016;2023-09-12T09:09:12;20.00;99.90
71754;DHT22;59593;51.716;7.016;2023-09-12T09:11:48;20.00;99.90
71754;DHT22;59593;51.716;7.016;2023-09-12T09:14:19;20.20;99.90
71754;DHT22;59593;51.716;7.016;2023-09-12T09:16:49;20.00;99.90
71754;DHT22;59593;51.716;7.016;2023-09-12T09:19:41;20.10;99.90
71754;DHT22;59593;51.716;7.016;2023-09-12T09:22:13;20.40;99.90
71754;DHT22;59593;51.716;7.016;2023-09-12T09:24:46;20.60;99.90
71754;DHT22;59593;51.716;7.016;2023-09-12T09:27:33;21.10;99.90
71754;DHT22;59593;51.716;7.016;2023-09-12T09:30:17;20.90;99.90
71754;DHT22;59593;51.716;7.016;2023-09-12T09:32:46;21.10;99.90
71754;DHT22;59593;51.716;7.016;2023-09-12T09:35:17;21.20;99.90
71754;DHT22;59593;51.716;7.016;2023-09-12T09:37:49;21.70;99.90
71754;DHT22;59593;51.716;7.016;2023-09-12T09:40:26;21.90;99.90
71754;DHT22;59593;51.716;7.016;2023-09-12T09:42:58;21.90;99.90
71754;DHT22;59593;51.716;7.016;2023-09-12T09:45:24;21.90;99.90
71754;DHT22;59593;51.716;7.016;2023-09-12T09:47:50;22.00;99.90
71754;DHT22;59593;51.716;7.016;2023-09-12T09:50:23;21.80;99.90
71754;DHT22;59593;51.716;7.016;2023-09-12T09:53:05;21.70;99.90
71754;DHT22;59593;51.716;7.016;2023-09-12T09:55:37;21.80;99.90
71754;DHT22;59593;51.716;7.016;2023-09-12T09:58:25;22.20;99.90
71754;DHT22;59593;51.716;7.016;2023-09-12T10:00:55;23.00;99.90
71754;DHT22;59593;51.716;7.016;2023-09-12T10:58:03;23.30;99.90
71754;DHT22;59593;51.716;7.016;2023-09-12T11:01:27;23.70;99.90
71754;DHT22;59593;51.716;7.016;2023-09-12T11:06:41;23.80;99.90
71754;DHT22;59593;51.716;7.016;2023-09-12T11:09:24;23.50;99.90
71754;DHT22;59593;51.716;7.016;2023-09-12T11:12:37;23.30;99.90
71754;DHT22;59593;51.716;7.016;2023-09-12T11:15:06;23.10;99.90
71754;DHT22;59593;51.716;7.016;2023-09-12T11:18:12;23.00;99.90
71754;DHT22;59593;51.716;7.016;2023-09-12T11:21:06;23.00;99.90
71754;DHT22;59593;51.716;7.016;2023-09-12T11:23:45;22.80;99.90
71754;DHT22;59593;51.716;7.016;2023-09-12T11:26:29;22.90;99.90
71754;DHT22;59593;51.716;7.016;2023-09-12T11:29:11;22.60;99.90
71754;DHT22;59593;51.716;7.016;2023-09-12T11:31:58;22.90;99.90
71754;DHT22;59593;51.716;7.016;2023-09-12T11:34:36;22.60;99.90
71754;DHT22;59593;51.716;7.016;2023-09-12T11:37:25;23.20;99.90
71754;DHT22;59593;51.716;7.016;2023-09-12T11:40:04;24.00;99.90
71754;DHT22;59593;51.716;7.016;2023-09-12T11:42:57;24.20;99.90
71754;DHT22;59593;51.716;7.016;2023-09-12T11:45:30;25.00;99.90
71754;DHT22;59593;51.716;7.016;2023-09-12T11:48:09;25.00;99.90
71754;DHT22;59593;51.716;7.016;2023-09-12T11:51:12;25.60;99.90
71754;DHT22;59593;51.716;7.016;2023-09-12T11:54:05;25.90;99.90
71754;DHT22;59593;51.716;7.016;2023-09-12T11:56:38;26.10;99.90
71754;DHT22;59593;51.716;7.016;2023-09-12T11:59:13;26.10;99.90
71754;DHT22;59593;51.716;7.016;2023-09-12T12:01:42;25.60;99.90
71754;DHT22;59593;51.716;7.016;2023-09-12T13:49:44;26.80;99.90
71754;DHT22;59593;51.716;7.016;2023-09-12T13:52:16;26.70;99.90
71754;DHT22;59593;51.716;7.016;2023-09-12T13:54:53;27.00;99.90
71754;DHT22;59593;51.716;7.016;2023-09-12T13:57:42;27.70;99.90
71754;DHT22;59593;51.716;7.016;2023-09-12T14:00:13;27.80;99.90
71754;DHT22;59593;51.716;7.016;2023-09-12T15:07:38;25.50;99.90
71754;DHT22;59593;51.716;7.016;2023-09-12T15:10:07;25.60;99.90
71754;DHT22;59593;51.716;7.016;2023-09-12T15:12:38;25.90;99.90
71754;DHT22;59593;51.716;7.016;2023-09-12T15:15:04;26.10;99.90
71754;DHT22;59593;51.716;7.016;2023-09-12T15:17:30;26.20;99.90
71754;DHT22;59593;51.716;7.016;2023-09-12T15:19:57;26.40;99.90
71754;DHT22;59593;51.716;7.016;2023-09-12T15:22:23;26.50;99.90
71754;DHT22;59593;51.716;7.016;2023-09-12T15:25:01;26.30;99.90
71754;DHT22;59593;51.716;7.016;2023-09-12T15:27:31;25.50;99.90
71754;DHT22;59593;51.716;7.016;2023-09-12T15:30:00;25.30;99.90
71754;DHT22;59593;51.716;7.016;2023-09-12T15:32:26;25.40;99.90
71754;DHT22;59593;51.716;7.016;2023-09-12T15:34:55;25.70;99.90
71754;DHT22;59593;51.716;7.016;2023-09-12T15:37:38;25.60;99.90
71754;DHT22;59593;51.716;7.016;2023-09-12T15:40:04;25.30;99.90
71754;DHT22;59593;51.716;7.016;2023-09-12T15:42:30;25.30;99.90
71754;DHT22;59593;51.716;7.016;2023-09-12T15:48:31;25.20;99.90
71754;DHT22;59593;51.716;7.016;2023-09-12T15:51:30;25.40;99.90
71754;DHT22;59593;51.716;7.016;2023-09-12T15:54:35;25.40;99.90
71754;DHT22;59593;51.716;7.016;2023-09-12T15:57:15;25.50;99.90
71754;DHT22;59593;51.716;7.016;2023-09-12T17:37:04;22.50;99.90
71754;DHT22;59593;51.716;7.016;2023-09-12T17:39:36;22.50;99.90
71754;DHT22;59593;51.716;7.016;2023-09-12T20:15:12;20.70;99.90
71754;DHT22;59593;51.716;7.016;2023-09-12T20:18:44;20.80;99.90
71754;DHT22;59593;51.716;7.016;2023-09-12T20:21:04;20.80;99.90
71754;DHT22;59593;51.716;7.016;2023-09-12T20:23:40;20.70;99.90
71754;DHT22;59593;51.716;7.016;2023-09-12T20:26:40;20.80;99.90
71754;DHT22;59593;51.716;7.016;2023-09-12T20:29:36;20.80;99.90
71754;DHT22;59593;51.716;7.016;2023-09-12T20:32:45;20.80;99.90
71754;DHT22;59593;51.716;7.016;2023-09-12T20:35:42;20.70;99.90
71754;DHT22;59593;51.716;7.016;2023-09-12T20:38:25;20.80;99.90
71754;DHT22;59593;51.716;7.016;2023-09-12T20:40:57;20.80;99.90
71754;DHT22;59593;51.716;7.016;2023-09-12T20:44:09;20.80;99.90
71754;DHT22;59593;51.716;7.016;2023-09-12T20:47:36;20.80;99.90
71754;DHT22;59593;51.716;7.016;2023-09-12T20:50:29;20.80;99.90
71754;DHT22;59593;51.716;7.016;2023-09-12T20:53:30;20.80;99.90
71754;DHT22;59593;51.716;7.016;2023-09-12T20:56:12;20.70;99.90
71754;DHT22;59593;51.716;7.016;2023-09-12T21:02:26;20.70;99.90
71754;DHT22;59593;51.716;7.016;2023-09-12T21:05:13;20.70;99.90
71754;DHT22;59593;51.716;7.016;2023-09-12T21:07:45;20.80;99.90
71754;DHT22;59593;51.716;7.016;2023-09-12T21:10:36;20.70;99.90
71754;DHT22;59593;51.716;7.016;2023-09-12T21:13:21;20.80;99.90
71754;DHT22;59593;51.716;7.016;2023-09-12T21:16:04;20.70;99.90
71754;DHT22;59593;51.716;7.016;2023-09-12T21:18:33;20.70;99.90
71754;DHT22;59593;51.716;7.016;2023-09-12T21:21:02;20.70;99.90
71754;DHT22;59593;51.716;7.016;2023-09-12T21:23:28;20.70;99.90
71754;DHT22;59593;51.716;7.016;2023-09-12T21:25:56;20.70;99.90
71754;DHT22;59593;51.716;7.016;2023-09-12T21:28:27;20.70;99.90
71754;DHT22;59593;51.716;7.016;2023-09-12T21:31:09;20.50;99.90
71754;DHT22;59593;51.716;7.016;2023-09-12T21:33:38;20.30;99.90
71754;DHT22;59593;51.716;7.016;2023-09-12T21:36:10;20.10;99.90
71754;DHT22;59593;51.716;7.016;2023-09-12T21:38:38;20.00;99.90
71754;DHT22;59593;51.716;7.016;2023-09-12T21:41:07;20.10;99.90
71754;DHT22;59593;51.716;7.016;2023-09-12T21:43:32;20.10;99.90
71754;DHT22;59593;51.716;7.016;2023-09-12T21:45:58;20.20;99.90
71754;DHT22;59593;51.716;7.016;2023-09-12T21:48:27;20.30;99.90
71754;DHT22;59593;51.716;7.016;2023-09-12T21:50:55;20.30;99.90
71754;DHT22;59593;51.716;7.016;2023-09-12T21:53:23;20.30;99.90
71754;DHT22;59593;51.716;7.016;2023-09-12T21:56:01;20.30;99.90
71754;DHT22;59593;51.716;7.016;2023-09-12T21:58:33;20.40;99.90
71754;DHT22;59593;51.716;7.016;2023-09-12T22:01:00;20.30;99.90
71754;DHT22;59593;51.716;7.016;2023-09-12T22:03:25;20.40;99.90
71754;DHT22;59593;51.716;7.016;2023-09-12T22:05:57;20.60;99.90
71754;DHT22;59593;51.716;7.016;2023-09-12T22:08:38;20.70;99.90
71754;DHT22;59593;51.716;7.016;2023-09-12T22:11:04;20.70;99.90
71754;DHT22;59593;51.716;7.016;2023-09-12T22:13:36;20.50;99.90
71754;DHT22;59593;51.716;7.016;2023-09-12T22:16:05;20.50;99.90
71754;DHT22;59593;51.716;7.016;2023-09-12T22:18:31;20.50;99.90
71754;DHT22;59593;51.716;7.016;2023-09-12T22:20:59;20.50;99.90
71754;DHT22;59593;51.716;7.016;2023-09-12T22:23:25;20.40;99.90
71754;DHT22;59593;51.716;7.016;2023-09-12T22:25:50;20.40;99.90
71754;DHT22;59593;51.716;7.016;2023-09-12T22:28:22;20.40;99.90
71754;DHT22;59593;51.716;7.016;2023-09-12T22:30:47;20.30;99.90
71754;DHT22;59593;51.716;7.016;2023-09-12T22:33:27;20.30;99.90
71754;DHT22;59593;51.716;7.016;2023-09-12T22:35:57;20.20;99.90
71754;DHT22;59593;51.716;7.016;2023-09-12T22:38:23;20.20;99.90
71754;DHT22;59593;51.716;7.016;2023-09-12T22:40:52;20.20;99.90
71754;DHT22;59593;51.716;7.016;2023-09-12T22:43:26;20.20;99.90
71754;DHT22;59593;51.716;7.016;2023-09-12T22:45:59;20.20;99.90
71754;DHT22;59593;51.716;7.016;2023-09-12T22:51:38;20.40;99.90
71754;DHT22;59593;51.716;7.016;2023-09-12T22:54:07;20.40;99.90
71754;DHT22;59593;51.716;7.016;2023-09-12T22:56:56;20.50;99.90
71754;DHT22;59593;51.716;7.016;2023-09-12T22:59:22;20.60;99.90
71754;DHT22;59593;51.716;7.016;2023-09-12T23:02:02;20.50;99.90
71754;DHT22;59593;51.716;7.016;2023-09-12T23:04:36;20.50;99.90
71754;DHT22;59593;51.716;7.016;2023-09-12T23:07:18;20.40;99.90
71754;DHT22;59593;51.716;7.016;2023-09-12T23:10:13;20.30;99.90
71754;DHT22;59593;51.716;7.016;2023-09-12T23:12:48;20.40;99.90
71754;DHT22;59593;51.716;7.016;2023-09-12T23:15:14;20.40;99.90
71754;DHT22;59593;51.716;7.016;2023-09-12T23:17:52;20.40;99.90
71754;DHT22;59593;51.716;7.016;2023-09-12T23:20:18;20.30;99.90
71754;DHT22;59593;51.716;7.016;2023-09-12T23:22:51;20.30;99.90
71754;DHT22;59593;51.716;7.016;2023-09-12T23:25:32;20.20;99.90
71754;DHT22;59593;51.716;7.016;2023-09-12T23:28:03;20.20;99.90
71754;DHT22;59593;51.716;7.016;2023-09-12T23:30:37;20.20;99.90
71754;DHT22;59593;51.716;7.016;2023-09-12T23:33:12;20.20;99.90
71754;DHT22;59593;51.716;7.016;2023-09-12T23:35:41;20.30;99.90
71754;DHT22;59593;51.716;7.016;2023-09-12T23:38:17;20.30;99.90
71754;DHT22;59593;51.716;7.016;2023-09-12T23:40:43;20.30;99.90
71754;DHT22;59593;51.716;7.016;2023-09-12T23:43:34;20.30;99.90
71754;DHT22;59593;51.716;7.016;2023-09-12T23:46:28;20.20;99.90
71754;DHT22;59593;51.716;7.016;2023-09-12T23:48:54;20.10;99.90
71754;DHT22;59593;51.716;7.016;2023-09-12T23:51:24;20.10;99.90
71754;DHT22;59593;51.716;7.016;2023-09-12T23:53:52;20.00;99.90
71754;DHT22;59593;51.716;7.016;2023-09-12T23:56:30;20.00;99.90
71754;DHT22;59593;51.716;7.016;2023-09-12T23:59:07;20.00;99.90
